Time,TemperatureF,DewpointF,PressureIn,WindDirection,WindDirectionDegrees,WindSpeedMPH,WindSpeedGustMPH,Humidity,HourlyPrecipIn,Conditions,Clouds,dailyrainin,SoftwareType,DateUTC
2013-10-29 01:52:00,54.0,-99.9,30.30,NNE,17,7.0,11.0,-999,0.00,,,-99.99,,2013-10-29 05:52:00,
2013-10-29 02:44:00,54.0,-99.9,30.30,NNE,17,7.0,11.0,-999,0.00,,,-99.99,,2013-10-29 06:44:00,
2013-10-29 02:52:00,53.0,-99.9,30.31,NNE,13,3.0,14.0,-999,0.00,,,-99.99,,2013-10-29 06:52:00,
2013-10-29 03:44:00,53.0,-99.9,30.31,NNE,13,3.0,14.0,-999,0.00,,,-99.99,,2013-10-29 07:44:00,
2013-10-29 03:52:00,53.0,-99.9,30.32,North,-999,7.0,16.0,-999,0.00,,,-99.99,,2013-10-29 07:52:00,
2013-10-29 04:42:00,53.0,-99.9,30.32,North,-999,7.0,16.0,-999,0.00,,,-99.99,,2013-10-29 08:42:00,
2013-10-29 04:52:00,53.0,-99.9,30.33,ENE,64,6.0,14.0,-999,0.00,,,-99.99,,2013-10-29 08:52:00,
2013-10-29 05:43:00,53.0,-99.9,30.33,ENE,64,6.0,14.0,-999,0.00,,,-99.99,,2013-10-29 09:43:00,
2013-10-29 05:52:00,53.0,-99.9,30.35,NE,40,8.0,14.0,-999,0.00,,,-99.99,,2013-10-29 09:52:00,
2013-10-29 06:42:00,53.0,-99.9,30.35,NE,40,8.0,14.0,-999,0.00,,,-99.99,,2013-10-29 10:42:00,
2013-10-29 06:52:00,52.0,-99.9,30.36,NE,40,11.0,15.0,-999,0.00,,,-99.99,,2013-10-29 10:52:00,
2013-10-29 07:42:00,52.0,-99.9,30.36,NE,40,11.0,15.0,-999,0.00,,,-99.99,,2013-10-29 11:42:00,
2013-10-29 07:52:00,52.0,-99.9,30.36,NE,36,9.0,10.0,-999,0.00,,,-99.99,,2013-10-29 11:52:00,
2013-10-29 08:42:00,52.0,-99.9,30.36,NE,36,9.0,10.0,-999,0.00,,,-99.99,,2013-10-29 12:42:00,
2013-10-29 08:52:00,54.0,-99.9,30.37,North,0,8.0,14.0,-999,0.00,,,-99.99,,2013-10-29 12:52:00,
2013-10-29 09:42:00,54.0,-99.9,30.37,North,0,8.0,14.0,-999,0.00,,,-99.99,,2013-10-29 13:42:00,
2013-10-29 09:52:00,54.0,-99.9,30.38,North,352,10.0,16.0,-999,0.00,,,-99.99,,2013-10-29 13:52:00,
2013-10-29 10:42:00,54.0,-99.9,30.38,North,352,10.0,16.0,-999,0.00,,,-99.99,,2013-10-29 14:42:00,
2013-10-29 10:52:00,53.0,-99.9,30.38,NNW,344,6.0,13.0,-999,0.00,,,-99.99,,2013-10-29 14:52:00,
2013-10-29 11:44:00,53.0,-99.9,30.38,NNW,344,6.0,13.0,-999,0.00,,,-99.99,,2013-10-29 15:44:00,
2013-10-29 11:52:00,53.0,-99.9,30.39,NNE,14,9.0,16.0,-999,0.00,,,-99.99,,2013-10-29 15:52:00,
2013-10-29 12:43:00,53.0,-99.9,30.39,NNE,14,9.0,16.0,-999,0.00,,,-99.99,,2013-10-29 16:43:00,
2013-10-29 12:52:00,53.0,-99.9,30.36,NE,50,5.0,12.0,-999,0.00,,,-99.99,,2013-10-29 16:52:00,
2013-10-29 13:42:00,53.0,-99.9,30.36,NE,50,5.0,12.0,-999,0.00,,,-99.99,,2013-10-29 17:42:00,
2013-10-29 13:52:00,53.0,-99.9,30.35,NNW,332,6.0,9.0,-999,0.00,,,-99.99,,2013-10-29 17:52:00,
2013-10-29 14:42:00,53.0,-99.9,30.35,NNW,332,6.0,9.0,-999,0.00,,,-99.99,,2013-10-29 18:42:00,
2013-10-29 14:52:00,53.0,-99.9,30.35,NNW,344,10.0,12.0,-999,0.00,,,-99.99,,2013-10-29 18:52:00,
2013-10-29 15:42:00,53.0,-99.9,30.35,NNW,344,10.0,12.0,-999,0.00,,,-99.99,,2013-10-29 19:42:00,
2013-10-29 15:52:00,53.0,-99.9,30.35,ESE,107,7.0,13.0,-999,0.00,,,-99.99,,2013-10-29 19:52:00,
2013-10-29 16:43:00,53.0,-99.9,30.35,ESE,107,7.0,13.0,-999,0.00,,,-99.99,,2013-10-29 20:43:00,
2013-10-29 16:52:00,53.0,-99.9,30.36,NW,316,8.0,10.0,-999,0.00,,,-99.99,,2013-10-29 20:52:00,
2013-10-29 17:43:00,53.0,-99.9,30.36,NW,316,8.0,10.0,-999,0.00,,,-99.99,,2013-10-29 21:43:00,
2013-10-29 17:53:00,52.0,-99.9,30.36,NE,53,5.0,7.0,-999,0.00,,,-99.99,,2013-10-29 21:53:00,
2013-10-29 18:43:00,52.0,-99.9,30.36,NE,53,5.0,7.0,-999,0.00,,,-99.99,,2013-10-29 22:43:00,
2013-10-29 18:52:00,52.0,-99.9,30.35,ENE,60,6.0,7.0,-999,0.00,,,-99.99,,2013-10-29 22:52:00,
2013-10-29 19:43:00,52.0,-99.9,30.35,ENE,60,6.0,7.0,-999,0.00,,,-99.99,,2013-10-29 23:43:00,
2013-10-29 19:52:00,52.0,-99.9,30.36,East,79,2.0,5.0,-999,0.00,,,-99.99,,2013-10-29 23:52:00,
2013-10-29 20:42:00,52.0,-99.9,30.36,East,79,2.0,5.0,-999,0.00,,,-99.99,,2013-10-30 00:42:00,
2013-10-29 20:52:00,50.0,-99.9,30.35,NE,53,-999.0,-999.0,-999,0.00,,,-99.99,,2013-10-30 00:52:00,
2013-10-29 21:42:00,50.0,-99.9,30.35,NE,53,-999.0,-999.0,-999,0.00,,,-99.99,,2013-10-30 01:42:00,
2013-10-29 21:52:00,50.0,-99.9,30.35,North,4,-999.0,-999.0,-999,0.00,,,-99.99,,2013-10-30 01:52:00,
2013-10-29 22:43:00,50.0,-99.9,30.35,North,4,-999.0,-999.0,-999,0.00,,,-99.99,,2013-10-30 02:43:00,
2013-10-29 22:52:00,47.0,-99.9,30.36,North,4,-999.0,-999.0,-999,0.00,,,-99.99,,2013-10-30 02:52:00,
2013-10-29 23:44:00,47.0,-99.9,30.36,North,4,-999.0,-999.0,-999,0.00,,,-99.99,,2013-10-30 03:44:00,
2013-10-29 23:52:00,46.0,-99.9,30.34,North,4,-999.0,-999.0,-999,0.00,,,-99.99,,2013-10-30 03:52:00,